createdAt,value
2024-03-12T02:21:01.059Z,58.60
2024-03-12T02:41:09.178Z,62.58
2024-03-12T03:44:05.410Z,61.22
2024-03-12T03:49:17.080Z,59.85
2024-03-12T03:54:20.011Z,60.72
2024-03-12T03:59:26.254Z,60.97
2024-03-12T04:04:29.817Z,71.18
2024-03-12T04:09:33.140Z,62.47
2024-03-12T04:14:42.944Z,64.38
2024-03-12T04:19:49.145Z,61.70
2024-03-12T04:24:57.413Z,62.08
2024-03-12T04:35:11.017Z,56.45
2024-03-12T04:40:21.029Z,53.20
2024-03-12T04:45:28.156Z,53.72
2024-03-12T04:50:44.744Z,46.92
2024-03-12T04:56:01.188Z,50.25
2024-03-12T05:01:34.582Z,47.28
2024-03-12T05:06:44.168Z,50.08
2024-03-12T05:11:50.020Z,46.08
2024-03-12T05:16:56.000Z,45.70
2024-03-12T05:22:00.322Z,47.28
2024-03-12T05:27:04.994Z,44.80
2024-03-12T05:32:19.506Z,41.90
2024-03-12T05:37:52.287Z,43.88
2024-03-12T05:43:21.687Z,41.28
2024-03-12T05:48:26.044Z,39.97
2024-03-12T05:53:31.497Z,41.05
2024-03-12T05:58:34.502Z,36.90
2024-03-12T06:04:11.132Z,39.67
2024-03-12T06:10:03.799Z,35.97
2024-03-12T06:15:46.591Z,36.40
2024-03-12T06:27:55.125Z,34.42
2024-03-12T06:33:52.155Z,34.63
2024-03-12T06:39:20.242Z,39.42
2024-03-12T06:44:46.594Z,34.70
2024-03-12T06:50:26.840Z,33.92
2024-03-12T06:56:01.608Z,36.65
2024-03-12T07:01:18.889Z,35.38
2024-03-12T07:11:48.563Z,34.25
2024-03-12T07:22:58.160Z,30.45
2024-03-12T08:02:03.141Z,34.78
2024-03-12T08:19:00.123Z,30.90
2024-03-12T08:24:17.461Z,31.55
2024-03-12T08:42:54.093Z,32.58
2024-03-12T08:48:43.029Z,33.47
2024-03-12T08:54:47.089Z,37.22
2024-03-12T08:59:51.218Z,33.15
2024-03-12T09:04:55.620Z,29.83
2024-03-12T09:09:59.853Z,29.88
2024-03-12T09:15:03.510Z,34.22
2024-03-12T09:20:11.222Z,42.97
2024-03-12T09:25:17.365Z,40.85
2024-03-12T09:30:22.302Z,38.03
2024-03-12T09:35:27.063Z,31.38
2024-03-12T09:40:31.032Z,32.03
2024-03-12T09:45:34.813Z,26.02
2024-03-12T09:50:39.796Z,30.33
2024-03-12T09:55:50.049Z,22.95
2024-03-12T10:01:23.620Z,24.50
2024-03-12T13:18:50.635Z,35.80
2024-03-12T13:24:13.672Z,38.90
2024-03-12T13:29:50.536Z,33.17
2024-03-12T17:12:18.908Z,38.60
2024-03-12T17:17:25.444Z,38.92
2024-03-12T17:22:34.618Z,39.20
2024-03-12T17:27:40.359Z,44.35
2024-03-12T17:32:46.855Z,43.17
2024-03-12T17:37:56.650Z,45.10
2024-03-12T17:43:01.082Z,44.25
2024-03-12T17:48:05.666Z,47.22
2024-03-12T17:53:11.613Z,53.13
2024-03-12T17:58:17.708Z,43.25
2024-03-12T18:03:23.933Z,47.83
2024-03-12T18:08:30.504Z,45.65
2024-03-12T18:13:34.063Z,46.22
2024-03-12T18:18:36.841Z,49.08
2024-03-12T18:30:02.040Z,49.40
2024-03-12T18:35:11.746Z,49.40
2024-03-12T18:40:25.469Z,46.25
2024-03-12T18:45:31.884Z,45.90
2024-03-12T18:50:35.141Z,41.13
2024-03-12T18:55:43.150Z,44.15
2024-03-12T19:01:14.964Z,41.97
2024-03-12T19:06:48.778Z,39.05
2024-03-12T19:11:53.874Z,36.53
2024-03-12T19:16:58.041Z,29.38
2024-03-12T19:22:12.001Z,28.83
2024-03-12T19:27:31.010Z,26.15
2024-03-12T19:32:44.376Z,25.90
2024-03-12T19:38:05.800Z,27.17
2024-03-12T19:43:13.226Z,28.48
2024-03-12T19:48:38.819Z,26.83
2024-03-12T19:53:43.656Z,28.33
2024-03-12T19:58:47.962Z,27.27
2024-03-12T20:03:54.040Z,30.13
2024-03-12T20:09:01.116Z,30.77
2024-03-12T20:14:06.102Z,31.77
2024-03-12T20:19:08.989Z,30.90
2024-03-12T20:24:11.995Z,30.90
2024-03-12T20:29:16.761Z,33.72
2024-03-12T20:34:19.843Z,34.58
2024-03-12T20:39:26.112Z,33.67
2024-03-12T20:44:32.068Z,34.00
2024-03-12T20:50:13.685Z,34.20
2024-03-12T21:02:21.497Z,33.22
2024-03-12T21:07:25.451Z,32.25
2024-03-12T21:12:28.250Z,33.67
2024-03-12T21:17:32.802Z,33.85
2024-03-12T21:22:36.060Z,31.58
2024-03-12T21:27:40.775Z,35.08
2024-03-12T21:32:45.300Z,30.20
2024-03-12T21:37:48.182Z,31.40
2024-03-12T21:42:51.568Z,32.83
2024-03-12T21:47:56.294Z,33.00
2024-03-12T21:52:59.655Z,32.30
2024-03-12T21:58:02.988Z,33.25
2024-03-12T22:03:08.504Z,34.88
2024-03-12T22:08:11.337Z,35.85
2024-03-12T22:13:23.989Z,34.63
2024-03-12T22:18:33.657Z,35.90
2024-03-12T22:23:36.396Z,35.50
2024-03-12T22:28:40.016Z,34.33
2024-03-12T22:33:45.028Z,38.17
2024-03-12T22:38:50.738Z,36.65
2024-03-12T22:43:54.157Z,32.08
2024-03-12T22:48:58.738Z,32.47
2024-03-12T22:54:02.214Z,34.15
2024-03-12T22:59:05.531Z,33.42
2024-03-12T23:04:09.953Z,34.40
2024-03-12T23:09:14.774Z,36.63
2024-03-12T23:14:19.340Z,37.78
2024-03-12T23:19:24.108Z,36.40
2024-03-12T23:24:26.907Z,38.78
2024-03-12T23:29:31.866Z,35.55
2024-03-12T23:34:36.901Z,36.10
2024-03-12T23:39:39.639Z,39.65
2024-03-12T23:44:42.364Z,38.72
2024-03-12T23:49:47.352Z,40.58
2024-03-12T23:54:50.171Z,42.53
2024-03-12T23:59:55.024Z,38.92
